< < Back
Terminal Aerodrome Forecast


Current Version              Previous Versions:   1  2  3  4  5  6  7  8  9  

Terminal Aerodrome Forecast

888
FTUS42 KFFC 281739
TAFCSG
TAF
KCSG 281739Z 2818/0118 09012KT P6SM SCT050 BKN100
     FM282200 09008KT P6SM OVC035
     FM010100 06008KT 4SM -RA BKN015
     FM010600 06008KT 3SM -RA OVC008
     FM011000 05008KT 2SM -RADZ OVC004
     FM011600 04008KT 4SM -RADZ OVC006=



Latest METAR

961
SAUS70 KWBC 281900
MTRCSG
METAR KCSG 281851Z 09009KT 10SM BKN050 14/03 A3046 RMK AO2 SLP317
T01390028


USA.gov is the U.S. government's official web portal to all federal, state and local government web resources and services.